sensor_id;sensor_type;location;lat;lon;timestamp;pressure;altitude;pressure_sealevel;temperature;humidity
70909;BME280;58554;52.006;5.926;2024-03-02T00:01:24;99070.94;;;7.53;68.18
70909;BME280;58554;52.006;5.926;2024-03-02T00:03:50;99070.94;;;7.53;68.26
70909;BME280;58554;52.006;5.926;2024-03-02T00:06:19;99076.09;;;7.55;68.31
70909;BME280;58554;52.006;5.926;2024-03-02T00:08:47;99069.03;;;7.55;68.17
70909;BME280;58554;52.006;5.926;2024-03-02T00:11:16;99065.34;;;7.58;68.28
70909;BME280;58554;52.006;5.926;2024-03-02T00:13:42;99067.97;;;7.58;68.28
70909;BME280;58554;52.006;5.926;2024-03-02T00:16:09;99066.41;;;7.55;68.14
70909;BME280;58554;52.006;5.926;2024-03-02T00:18:36;99057.56;;;7.56;68.24
70909;BME280;58554;52.006;5.926;2024-03-02T00:21:06;99065.59;;;7.55;68.33
70909;BME280;58554;52.006;5.926;2024-03-02T00:23:33;99063.78;;;7.55;68.37
70909;BME280;58554;52.006;5.926;2024-03-02T00:26:01;99064.72;;;7.54;68.29
70909;BME280;58554;52.006;5.926;2024-03-02T00:28:33;99069.16;;;7.54;68.46
70909;BME280;58554;52.006;5.926;2024-03-02T00:31:03;99068.22;;;7.55;68.40
70909;BME280;58554;52.006;5.926;2024-03-02T00:33:32;99069.16;;;7.54;68.09
70909;BME280;58554;52.006;5.926;2024-03-02T00:36:01;99064.03;;;7.52;68.48
70909;BME280;58554;52.006;5.926;2024-03-02T00:38:28;99056.13;;;7.52;68.43
70909;BME280;58554;52.006;5.926;2024-03-02T00:40:58;99069.28;;;7.52;68.21
70909;BME280;58554;52.006;5.926;2024-03-02T00:43:45;99061.25;;;7.54;68.48
70909;BME280;58554;52.006;5.926;2024-03-02T00:46:17;99062.22;;;7.53;68.43
70909;BME280;58554;52.006;5.926;2024-03-02T00:48:50;99069.03;;;7.55;68.50
70909;BME280;58554;52.006;5.926;2024-03-02T00:51:19;99064.63;;;7.56;68.35
70909;BME280;58554;52.006;5.926;2024-03-02T00:53:46;99072.50;;;7.56;68.32
70909;BME280;58554;52.006;5.926;2024-03-02T00:56:13;99065.44;;;7.56;68.26
70909;BME280;58554;52.006;5.926;2024-03-02T00:58:40;99064.50;;;7.57;68.35
70909;BME280;58554;52.006;5.926;2024-03-02T01:01:09;99085.56;;;7.57;68.38
70909;BME280;58554;52.006;5.926;2024-03-02T01:03:36;99084.50;;;7.60;68.20
70909;BME280;58554;52.006;5.926;2024-03-02T01:06:03;99092.28;;;7.61;68.50
70909;BME280;58554;52.006;5.926;2024-03-02T01:08:30;99089.75;;;7.60;68.48
70909;BME280;58554;52.006;5.926;2024-03-02T01:10:57;99093.34;;;7.59;68.18
70909;BME280;58554;52.006;5.926;2024-03-02T01:13:23;99096.91;;;7.58;68.41
70909;BME280;58554;52.006;5.926;2024-03-02T01:15:50;99089.03;;;7.58;68.37
70909;BME280;58554;52.006;5.926;2024-03-02T01:18:19;99112.59;;;7.59;68.48
70909;BME280;58554;52.006;5.926;2024-03-02T01:20:46;99115.94;;;7.61;68.48
70909;BME280;58554;52.006;5.926;2024-03-02T01:23:12;99121.22;;;7.61;68.48
70909;BME280;58554;52.006;5.926;2024-03-02T01:25:39;99134.38;;;7.61;68.25
70909;BME280;58554;52.006;5.926;2024-03-02T01:28:05;99139.72;;;7.60;68.32
70909;BME280;58554;52.006;5.926;2024-03-02T01:30:32;99153.94;;;7.57;68.46
70909;BME280;58554;52.006;5.926;2024-03-02T01:32:58;99154.88;;;7.56;68.38
70909;BME280;58554;52.006;5.926;2024-03-02T01:35:27;99146.16;;;7.56;68.56
70909;BME280;58554;52.006;5.926;2024-03-02T01:37:54;99143.44;;;7.57;68.92
70909;BME280;58554;52.006;5.926;2024-03-02T01:40:20;99144.25;;;7.58;68.97
70909;BME280;58554;52.006;5.926;2024-03-02T01:42:47;99150.34;;;7.58;69.07
70909;BME280;58554;52.006;5.926;2024-03-02T01:45:14;99157.22;;;7.61;69.41
70909;BME280;58554;52.006;5.926;2024-03-02T01:47:41;99150.97;;;7.62;69.30
70909;BME280;58554;52.006;5.926;2024-03-02T01:50:08;99155.75;;;7.57;69.73
70909;BME280;58554;52.006;5.926;2024-03-02T01:52:39;99149.63;;;7.56;69.88
70909;BME280;58554;52.006;5.926;2024-03-02T01:55:06;99145.31;;;7.55;70.04
70909;BME280;58554;52.006;5.926;2024-03-02T01:57:34;99134.81;;;7.55;69.85
70909;BME280;58554;52.006;5.926;2024-03-02T02:00:01;99130.38;;;7.56;70.12
70909;BME280;58554;52.006;5.926;2024-03-02T02:02:27;99132.91;;;7.57;70.17
70909;BME280;58554;52.006;5.926;2024-03-02T02:04:54;99130.28;;;7.57;70.08
70909;BME280;58554;52.006;5.926;2024-03-02T02:07:20;99125.94;;;7.56;70.33
70909;BME280;58554;52.006;5.926;2024-03-02T02:09:50;99125.13;;;7.56;70.39
70909;BME280;58554;52.006;5.926;2024-03-02T02:12:16;99111.03;;;7.57;70.37
70909;BME280;58554;52.006;5.926;2024-03-02T02:14:47;99111.97;;;7.56;70.42
70909;BME280;58554;52.006;5.926;2024-03-02T02:17:14;99112.69;;;7.58;70.48
70909;BME280;58554;52.006;5.926;2024-03-02T02:19:40;99111.97;;;7.56;70.51
70909;BME280;58554;52.006;5.926;2024-03-02T02:22:09;99116.38;;;7.55;70.66
70909;BME280;58554;52.006;5.926;2024-03-02T02:24:39;99109.56;;;7.53;70.81
70909;BME280;58554;52.006;5.926;2024-03-02T02:27:06;99123.66;;;7.51;70.78
70909;BME280;58554;52.006;5.926;2024-03-02T02:29:33;99121.25;;;7.48;70.96
70909;BME280;58554;52.006;5.926;2024-03-02T02:32:00;99112.53;;;7.48;71.18
70909;BME280;58554;52.006;5.926;2024-03-02T02:34:26;99110.84;;;7.47;70.98
70909;BME280;58554;52.006;5.926;2024-03-02T02:36:53;99117.06;;;7.46;71.08
70909;BME280;58554;52.006;5.926;2024-03-02T02:39:23;99116.09;;;7.47;71.27
70909;BME280;58554;52.006;5.926;2024-03-02T02:41:49;99109.91;;;7.48;71.08
70909;BME280;58554;52.006;5.926;2024-03-02T02:44:16;99110.94;;;7.45;71.09
70909;BME280;58554;52.006;5.926;2024-03-02T02:46:42;99110.00;;;7.46;71.28
70909;BME280;58554;52.006;5.926;2024-03-02T02:49:09;99121.44;;;7.45;71.30
70909;BME280;58554;52.006;5.926;2024-03-02T02:51:35;99112.72;;;7.45;71.34
70909;BME280;58554;52.006;5.926;2024-03-02T02:54:02;99105.81;;;7.44;71.22
70909;BME280;58554;52.006;5.926;2024-03-02T02:56:31;99104.84;;;7.45;71.02
70909;BME280;58554;52.006;5.926;2024-03-02T02:58:58;99108.44;;;7.44;71.19
70909;BME280;58554;52.006;5.926;2024-03-02T03:01:24;99119.88;;;7.43;71.29
70909;BME280;58554;52.006;5.926;2024-03-02T03:03:50;99119.88;;;7.43;71.19
70909;BME280;58554;52.006;5.926;2024-03-02T03:06:17;99104.31;;;7.40;71.28
70909;BME280;58554;52.006;5.926;2024-03-02T03:08:43;99107.88;;;7.39;71.16
70909;BME280;58554;52.006;5.926;2024-03-02T03:11:10;99112.50;;;7.35;71.17
70909;BME280;58554;52.006;5.926;2024-03-02T03:13:39;99110.84;;;7.34;71.39
70909;BME280;58554;52.006;5.926;2024-03-02T03:16:06;99109.28;;;7.31;71.48
70909;BME280;58554;52.006;5.926;2024-03-02T03:18:32;99112.00;;;7.30;71.46
70909;BME280;58554;52.006;5.926;2024-03-02T03:20:59;99125.34;;;7.27;71.39
70909;BME280;58554;52.006;5.926;2024-03-02T03:23:25;99107.06;;;7.25;71.50
70909;BME280;58554;52.006;5.926;2024-03-02T03:25:52;99114.22;;;7.23;71.44
70909;BME280;58554;52.006;5.926;2024-03-02T03:28:18;99119.47;;;7.23;71.50
70909;BME280;58554;52.006;5.926;2024-03-02T03:30:47;99121.56;;;7.18;71.44
70909;BME280;58554;52.006;5.926;2024-03-02T03:33:14;99125.25;;;7.16;71.86
70909;BME280;58554;52.006;5.926;2024-03-02T03:35:40;99130.63;;;7.14;71.77
70909;BME280;58554;52.006;5.926;2024-03-02T03:38:07;99134.22;;;7.13;72.07
70909;BME280;58554;52.006;5.926;2024-03-02T03:40:33;99136.09;;;7.11;71.91
70909;BME280;58554;52.006;5.926;2024-03-02T03:43:00;99138.00;;;7.09;72.05
70909;BME280;58554;52.006;5.926;2024-03-02T03:45:26;99130.22;;;7.07;72.12
70909;BME280;58554;52.006;5.926;2024-03-02T03:47:56;99142.63;;;7.05;72.34
70909;BME280;58554;52.006;5.926;2024-03-02T03:50:22;99147.03;;;7.05;72.37
70909;BME280;58554;52.006;5.926;2024-03-02T03:52:48;99133.16;;;7.03;72.45
70909;BME280;58554;52.006;5.926;2024-03-02T03:55:15;99139.47;;;7.00;72.55
70909;BME280;58554;52.006;5.926;2024-03-02T03:57:41;99157.97;;;6.99;72.76
70909;BME280;58554;52.006;5.926;2024-03-02T04:00:08;99138.84;;;6.97;72.86
70909;BME280;58554;52.006;5.926;2024-03-02T04:02:36;99144.28;;;6.94;72.82
70909;BME280;58554;52.006;5.926;2024-03-02T04:05:05;99145.25;;;6.93;73.09
70909;BME280;58554;52.006;5.926;2024-03-02T04:07:32;99133.16;;;6.90;73.28
70909;BME280;58554;52.006;5.926;2024-03-02T04:09:59;99140.31;;;6.88;73.30
70909;BME280;58554;52.006;5.926;2024-03-02T04:12:25;99143.88;;;6.87;73.26
70909;BME280;58554;52.006;5.926;2024-03-02T04:14:52;99167.63;;;6.85;73.29
70909;BME280;58554;52.006;5.926;2024-03-02T04:17:18;99166.16;;;6.81;73.52
70909;BME280;58554;52.006;5.926;2024-03-02T04:19:45;99160.28;;;6.78;73.60
70909;BME280;58554;52.006;5.926;2024-03-02T04:22:14;99152.47;;;6.76;73.46
70909;BME280;58554;52.006;5.926;2024-03-02T04:24:40;99144.59;;;6.76;73.52
70909;BME280;58554;52.006;5.926;2024-03-02T04:27:07;99143.78;;;6.76;73.64
70909;BME280;58554;52.006;5.926;2024-03-02T04:29:33;99149.13;;;6.74;73.49
70909;BME280;58554;52.006;5.926;2024-03-02T04:32:00;99149.22;;;6.73;73.67
70909;BME280;58554;52.006;5.926;2024-03-02T04:34:26;99155.44;;;6.72;73.50
70909;BME280;58554;52.006;5.926;2024-03-02T04:36:53;99158.97;;;6.70;73.92
70909;BME280;58554;52.006;5.926;2024-03-02T04:39:22;99155.44;;;6.72;73.66
70909;BME280;58554;52.006;5.926;2024-03-02T04:41:48;99165.09;;;6.71;73.87
70909;BME280;58554;52.006;5.926;2024-03-02T04:44:15;99163.41;;;6.70;73.75
70909;BME280;58554;52.006;5.926;2024-03-02T04:46:41;99172.25;;;6.69;73.95
70909;BME280;58554;52.006;5.926;2024-03-02T04:49:07;99166.25;;;6.67;73.89
70909;BME280;58554;52.006;5.926;2024-03-02T04:51:34;99167.91;;;6.68;73.82
70909;BME280;58554;52.006;5.926;2024-03-02T04:54:03;99173.16;;;6.68;73.54
70909;BME280;58554;52.006;5.926;2024-03-02T04:56:32;99174.00;;;6.68;73.84
70909;BME280;58554;52.006;5.926;2024-03-02T04:58:59;99177.50;;;6.69;73.83
70909;BME280;58554;52.006;5.926;2024-03-02T05:01:25;99173.16;;;6.68;73.57
70909;BME280;58554;52.006;5.926;2024-03-02T05:03:52;99180.13;;;6.69;73.48
70909;BME280;58554;52.006;5.926;2024-03-02T05:06:19;99183.59;;;6.69;73.56
70909;BME280;58554;52.006;5.926;2024-03-02T05:08:45;99186.31;;;6.68;73.67
70909;BME280;58554;52.006;5.926;2024-03-02T05:11:23;99192.69;;;6.64;73.51
70909;BME280;58554;52.006;5.926;2024-03-02T05:13:52;99194.69;;;6.60;73.56
70909;BME280;58554;52.006;5.926;2024-03-02T05:16:19;99194.06;;;6.57;73.85
70909;BME280;58554;52.006;5.926;2024-03-02T05:18:46;99192.59;;;6.53;73.73
70909;BME280;58554;52.006;5.926;2024-03-02T05:21:13;99192.69;;;6.51;73.69
70909;BME280;58554;52.006;5.926;2024-03-02T05:23:39;99195.59;;;6.46;73.96
70909;BME280;58554;52.006;5.926;2024-03-02T05:26:06;99202.84;;;6.43;73.83
70909;BME280;58554;52.006;5.926;2024-03-02T05:28:32;99200.31;;;6.41;73.96
70909;BME280;58554;52.006;5.926;2024-03-02T05:31:01;99207.44;;;6.39;74.01
70909;BME280;58554;52.006;5.926;2024-03-02T05:33:28;99199.56;;;6.39;73.82
70909;BME280;58554;52.006;5.926;2024-03-02T05:35:55;99206.69;;;6.37;74.12
70909;BME280;58554;52.006;5.926;2024-03-02T05:38:21;99194.72;;;6.33;74.26
70909;BME280;58554;52.006;5.926;2024-03-02T05:40:48;99207.31;;;6.28;74.04
70909;BME280;58554;52.006;5.926;2024-03-02T05:43:14;99196.06;;;6.26;74.19
70909;BME280;58554;52.006;5.926;2024-03-02T05:45:41;99206.75;;;6.23;73.89
70909;BME280;58554;52.006;5.926;2024-03-02T05:48:10;99205.91;;;6.22;73.89
70909;BME280;58554;52.006;5.926;2024-03-02T05:50:36;99203.41;;;6.21;73.95
70909;BME280;58554;52.006;5.926;2024-03-02T05:53:03;99213.16;;;6.19;74.00
70909;BME280;58554;52.006;5.926;2024-03-02T05:55:30;99210.72;;;6.16;73.86
70909;BME280;58554;52.006;5.926;2024-03-02T05:57:56;99226.47;;;6.16;74.10
70909;BME280;58554;52.006;5.926;2024-03-02T06:00:23;99224.97;;;6.12;74.10
70909;BME280;58554;52.006;5.926;2024-03-02T06:02:49;99233.16;;;6.07;74.03
70909;BME280;58554;52.006;5.926;2024-03-02T06:05:18;99228.81;;;6.06;74.00
70909;BME280;58554;52.006;5.926;2024-03-02T06:07:45;99233.16;;;6.07;73.95
70909;BME280;58554;52.006;5.926;2024-03-02T06:10:11;99225.34;;;6.05;73.90
70909;BME280;58554;52.006;5.926;2024-03-02T06:12:38;99228.81;;;6.06;73.73
70909;BME280;58554;52.006;5.926;2024-03-02T06:15:05;99241.09;;;6.05;73.90
70909;BME280;58554;52.006;5.926;2024-03-02T06:17:34;99242.97;;;6.03;73.72
70909;BME280;58554;52.006;5.926;2024-03-02T06:20:01;99245.59;;;6.03;73.88
70909;BME280;58554;52.006;5.926;2024-03-02T06:22:30;99239.53;;;6.03;73.72
70909;BME280;58554;52.006;5.926;2024-03-02T06:24:56;99240.34;;;6.03;73.72
70909;BME280;58554;52.006;5.926;2024-03-02T06:27:23;99245.59;;;6.03;73.77
70909;BME280;58554;52.006;5.926;2024-03-02T06:29:49;99249.28;;;6.01;73.60
70909;BME280;58554;52.006;5.926;2024-03-02T06:32:15;99252.94;;;5.98;73.76
70909;BME280;58554;52.006;5.926;2024-03-02T06:34:42;99252.28;;;5.95;73.79
70909;BME280;58554;52.006;5.926;2024-03-02T06:37:08;99253.31;;;5.92;73.61
70909;BME280;58554;52.006;5.926;2024-03-02T06:39:38;99261.19;;;5.92;73.70
70909;BME280;58554;52.006;5.926;2024-03-02T06:42:04;99258.56;;;5.92;73.68
70909;BME280;58554;52.006;5.926;2024-03-02T06:44:30;99261.19;;;5.92;73.77
70909;BME280;58554;52.006;5.926;2024-03-02T06:46:57;99264.56;;;5.94;73.79
70909;BME280;58554;52.006;5.926;2024-03-02T06:49:23;99268.09;;;5.93;74.06
70909;BME280;58554;52.006;5.926;2024-03-02T06:51:50;99265.41;;;5.95;73.94
70909;BME280;58554;52.006;5.926;2024-03-02T06:54:16;99265.41;;;5.95;74.10
70909;BME280;58554;52.006;5.926;2024-03-02T06:56:45;99267.81;;;5.98;74.18
70909;BME280;58554;52.006;5.926;2024-03-02T06:59:12;99268.47;;;6.01;74.17
70909;BME280;58554;52.006;5.926;2024-03-02T07:01:38;99268.19;;;6.06;74.18
70909;BME280;58554;52.006;5.926;2024-03-02T07:04:05;99273.91;;;6.13;74.21
70909;BME280;58554;52.006;5.926;2024-03-02T07:06:31;99270.25;;;6.15;74.22
70909;BME280;58554;52.006;5.926;2024-03-02T07:08:58;99273.53;;;6.19;74.40
70909;BME280;58554;52.006;5.926;2024-03-02T07:11:24;99272.47;;;6.21;74.33
70909;BME280;58554;52.006;5.926;2024-03-02T07:13:53;99274.81;;;6.26;74.09
70909;BME280;58554;52.006;5.926;2024-03-02T07:16:20;99274.59;;;6.29;73.92
70909;BME280;58554;52.006;5.926;2024-03-02T07:18:46;99277.97;;;6.31;74.03
70909;BME280;58554;52.006;5.926;2024-03-02T07:21:12;99284.09;;;6.32;74.04
70909;BME280;58554;52.006;5.926;2024-03-02T07:23:39;99292.72;;;6.34;74.12
70909;BME280;58554;52.006;5.926;2024-03-02T07:26:05;99294.19;;;6.38;74.19
70909;BME280;58554;52.006;5.926;2024-03-02T07:28:32;99301.78;;;6.42;74.11
70909;BME280;58554;52.006;5.926;2024-03-02T07:31:02;99303.25;;;6.46;74.06
70909;BME280;58554;52.006;5.926;2024-03-02T07:33:32;99300.56;;;6.48;73.83
70909;BME280;58554;52.006;5.926;2024-03-02T07:36:02;99308.22;;;6.51;73.77
70909;BME280;58554;52.006;5.926;2024-03-02T07:38:29;99308.22;;;6.51;73.83
70909;BME280;58554;52.006;5.926;2024-03-02T07:40:56;99315.06;;;6.54;73.84
70909;BME280;58554;52.006;5.926;2024-03-02T07:43:23;99316.44;;;6.59;73.55
70909;BME280;58554;52.006;5.926;2024-03-02T07:45:50;99319.72;;;6.63;73.61
70909;BME280;58554;52.006;5.926;2024-03-02T07:48:19;99317.84;;;6.65;73.36
70909;BME280;58554;52.006;5.926;2024-03-02T07:50:45;99315.00;;;6.68;73.50
70909;BME280;58554;52.006;5.926;2024-03-02T07:53:12;99306.94;;;6.71;73.39
70909;BME280;58554;52.006;5.926;2024-03-02T07:55:39;99321.66;;;6.74;73.29
70909;BME280;58554;52.006;5.926;2024-03-02T07:58:06;99311.59;;;6.80;73.35
70909;BME280;58554;52.006;5.926;2024-03-02T08:00:33;99310.13;;;6.89;73.32
70909;BME280;58554;52.006;5.926;2024-03-02T08:03:00;99312.28;;;6.97;73.17
70909;BME280;58554;52.006;5.926;2024-03-02T08:05:29;99322.38;;;7.03;73.17
70909;BME280;58554;52.006;5.926;2024-03-02T08:07:56;99320.50;;;7.05;72.75
70909;BME280;58554;52.006;5.926;2024-03-02T08:10:22;99324.50;;;7.10;73.18
70909;BME280;58554;52.006;5.926;2024-03-02T08:12:49;99319.03;;;7.14;72.63
70909;BME280;58554;52.006;5.926;2024-03-02T08:15:15;99323.25;;;7.16;72.83
70909;BME280;58554;52.006;5.926;2024-03-02T08:17:42;99328.31;;;7.19;72.54
70909;BME280;58554;52.006;5.926;2024-03-02T08:20:10;99321.16;;;7.21;72.70
70909;BME280;58554;52.006;5.926;2024-03-02T08:22:40;99323.47;;;7.26;72.81
70909;BME280;58554;52.006;5.926;2024-03-02T08:25:07;99326.53;;;7.32;72.65
70909;BME280;58554;52.006;5.926;2024-03-02T08:27:34;99326.22;;;7.37;72.21
70909;BME280;58554;52.006;5.926;2024-03-02T08:30:01;99321.69;;;7.39;72.44
70909;BME280;58554;52.006;5.926;2024-03-02T08:32:27;99322.38;;;7.43;72.38
70909;BME280;58554;52.006;5.926;2024-03-02T08:34:54;99315.97;;;7.47;72.46
70909;BME280;58554;52.006;5.926;2024-03-02T08:37:20;99318.41;;;7.50;72.29
70909;BME280;58554;52.006;5.926;2024-03-02T08:39:49;99315.66;;;7.51;72.01
70909;BME280;58554;52.006;5.926;2024-03-02T08:42:16;99318.91;;;7.55;71.84
70909;BME280;58554;52.006;5.926;2024-03-02T08:44:42;99323.97;;;7.58;71.43
70909;BME280;58554;52.006;5.926;2024-03-02T08:47:09;99318.50;;;7.61;71.65
70909;BME280;58554;52.006;5.926;2024-03-02T08:49:36;99326.91;;;7.66;71.50
70909;BME280;58554;52.006;5.926;2024-03-02T08:52:03;99335.44;;;7.70;71.32
70909;BME280;58554;52.006;5.926;2024-03-02T08:54:29;99330.91;;;7.72;71.02
70909;BME280;58554;52.006;5.926;2024-03-02T08:56:58;99323.88;;;7.73;71.09
70909;BME280;58554;52.006;5.926;2024-03-02T08:59:25;99331.56;;;7.76;71.05
70909;BME280;58554;52.006;5.926;2024-03-02T09:01:52;99328.84;;;7.77;71.06
70909;BME280;58554;52.006;5.926;2024-03-02T09:04:19;99324.19;;;7.81;70.17
70909;BME280;58554;52.006;5.926;2024-03-02T09:06:45;99345.03;;;7.84;70.84
70909;BME280;58554;52.006;5.926;2024-03-02T09:09:12;99343.88;;;7.88;70.71
70909;BME280;58554;52.006;5.926;2024-03-02T09:11:38;99340.09;;;7.92;70.49
70909;BME280;58554;52.006;5.926;2024-03-02T09:14:08;99330.16;;;7.96;69.69
70909;BME280;58554;52.006;5.926;2024-03-02T09:16:34;99331.13;;;7.95;69.75
70909;BME280;58554;52.006;5.926;2024-03-02T09:19:01;99329.56;;;7.92;69.80
70909;BME280;58554;52.006;5.926;2024-03-02T09:21:27;99337.22;;;7.95;69.94
70909;BME280;58554;52.006;5.926;2024-03-02T09:23:53;99323.00;;;7.98;69.78
70909;BME280;58554;52.006;5.926;2024-03-02T09:26:20;99328.91;;;8.01;69.92
70909;BME280;58554;52.006;5.926;2024-03-02T09:28:46;99340.91;;;8.05;69.75
70909;BME280;58554;52.006;5.926;2024-03-02T09:31:15;99339.09;;;8.06;69.99
70909;BME280;58554;52.006;5.926;2024-03-02T09:33:42;99344.06;;;8.10;69.64
70909;BME280;58554;52.006;5.926;2024-03-02T09:36:16;99343.00;;;8.13;69.68
70909;BME280;58554;52.006;5.926;2024-03-02T09:38:43;99335.75;;;8.17;69.54
70909;BME280;58554;52.006;5.926;2024-03-02T09:41:10;99342.69;;;8.18;68.96
70909;BME280;58554;52.006;5.926;2024-03-02T09:43:38;99340.78;;;8.20;68.48
70909;BME280;58554;52.006;5.926;2024-03-02T09:46:04;99336.34;;;8.20;68.96
70909;BME280;58554;52.006;5.926;2024-03-02T09:48:33;99347.72;;;8.21;68.66
70909;BME280;58554;52.006;5.926;2024-03-02T09:51:00;99333.72;;;8.20;68.58
70909;BME280;58554;52.006;5.926;2024-03-02T09:53:31;99332.66;;;8.23;68.92
70909;BME280;58554;52.006;5.926;2024-03-02T09:55:59;99325.63;;;8.23;68.48
70909;BME280;58554;52.006;5.926;2024-03-02T09:58:26;99330.66;;;8.26;68.70
70909;BME280;58554;52.006;5.926;2024-03-02T10:00:52;99335.72;;;8.29;68.52
70909;BME280;58554;52.006;5.926;2024-03-02T10:03:19;99334.66;;;8.32;68.80
70909;BME280;58554;52.006;5.926;2024-03-02T10:05:48;99331.69;;;8.37;68.82
70909;BME280;58554;52.006;5.926;2024-03-02T10:08:15;99328.72;;;8.41;68.75
70909;BME280;58554;52.006;5.926;2024-03-02T10:10:41;99334.41;;;8.48;68.45
70909;BME280;58554;52.006;5.926;2024-03-02T10:13:09;99339.44;;;8.51;68.75
70909;BME280;58554;52.006;5.926;2024-03-02T10:15:37;99340.66;;;8.58;68.70
70909;BME280;58554;52.006;5.926;2024-03-02T10:18:08;99340.97;;;8.66;68.72
70909;BME280;58554;52.006;5.926;2024-03-02T10:20:37;99342.22;;;8.73;68.56
70909;BME280;58554;52.006;5.926;2024-03-02T10:23:14;99334.69;;;8.80;68.55
70909;BME280;58554;52.006;5.926;2024-03-02T10:25:42;99329.09;;;8.85;67.68
70909;BME280;58554;52.006;5.926;2024-03-02T10:28:09;99336.78;;;8.88;67.59
70909;BME280;58554;52.006;5.926;2024-03-02T10:30:36;99333.06;;;8.90;67.44
70909;BME280;58554;52.006;5.926;2024-03-02T10:33:03;99327.34;;;8.97;67.85
70909;BME280;58554;52.006;5.926;2024-03-02T10:35:32;99327.25;;;8.98;67.62
70909;BME280;58554;52.006;5.926;2024-03-02T10:37:59;99331.34;;;9.02;67.34
70909;BME280;58554;52.006;5.926;2024-03-02T10:40:29;99328.34;;;9.07;67.25
70909;BME280;58554;52.006;5.926;2024-03-02T10:42:56;99328.25;;;9.08;66.83
70909;BME280;58554;52.006;5.926;2024-03-02T10:45:25;99313.25;;;9.09;66.48
70909;BME280;58554;52.006;5.926;2024-03-02T10:47:51;99315.66;;;9.12;66.65
70909;BME280;58554;52.006;5.926;2024-03-02T10:50:18;99309.34;;;9.15;67.05
70909;BME280;58554;52.006;5.926;2024-03-02T10:52:45;99305.63;;;9.17;66.98
70909;BME280;58554;52.006;5.926;2024-03-02T10:55:12;99303.56;;;9.21;66.56
70909;BME280;58554;52.006;5.926;2024-03-02T10:57:50;99298.19;;;9.22;66.51
70909;BME280;58554;52.006;5.926;2024-03-02T11:00:19;99296.28;;;9.24;65.85
70909;BME280;58554;52.006;5.926;2024-03-02T11:02:50;99305.88;;;9.25;66.28
70909;BME280;58554;52.006;5.926;2024-03-02T11:05:26;99300.28;;;9.30;66.66
70909;BME280;58554;52.006;5.926;2024-03-02T11:07:57;99294.66;;;9.35;66.50
70909;BME280;58554;52.006;5.926;2024-03-02T11:10:32;99292.53;;;9.40;66.38
70909;BME280;58554;52.006;5.926;2024-03-02T11:13:05;99294.91;;;9.43;66.04
70909;BME280;58554;52.006;5.926;2024-03-02T11:15:35;99302.47;;;9.47;65.92
70909;BME280;58554;52.006;5.926;2024-03-02T11:18:04;99297.09;;;9.49;65.95
70909;BME280;58554;52.006;5.926;2024-03-02T11:20:32;99295.19;;;9.51;65.85
70909;BME280;58554;52.006;5.926;2024-03-02T11:23:05;99303.00;;;9.52;65.94
70909;BME280;58554;52.006;5.926;2024-03-02T11:25:32;99289.66;;;9.54;65.99
70909;BME280;58554;52.006;5.926;2024-03-02T11:28:00;99291.34;;;9.55;65.73
70909;BME280;58554;52.006;5.926;2024-03-02T11:30:49;99308.63;;;9.59;64.79
70909;BME280;58554;52.006;5.926;2024-03-02T11:33:23;99302.53;;;9.59;64.89
70909;BME280;58554;52.006;5.926;2024-03-02T11:35:53;99291.00;;;9.60;64.75
70909;BME280;58554;52.006;5.926;2024-03-02T11:38:19;99298.06;;;9.59;65.45
70909;BME280;58554;52.006;5.926;2024-03-02T11:40:46;99298.78;;;9.61;65.43
70909;BME280;58554;52.006;5.926;2024-03-02T11:43:16;99309.09;;;9.64;65.42
70909;BME280;58554;52.006;5.926;2024-03-02T11:45:43;99292.22;;;9.67;64.75
70909;BME280;58554;52.006;5.926;2024-03-02T11:48:11;99297.25;;;9.70;64.50
70909;BME280;58554;52.006;5.926;2024-03-02T11:50:41;99284.75;;;9.72;65.46
70909;BME280;58554;52.006;5.926;2024-03-02T11:53:12;99289.69;;;9.77;65.00
70909;BME280;58554;52.006;5.926;2024-03-02T11:55:39;99284.28;;;9.78;65.01
70909;BME280;58554;52.006;5.926;2024-03-02T11:58:06;99277.91;;;9.81;65.07
70909;BME280;58554;52.006;5.926;2024-03-02T12:00:35;99279.47;;;9.83;65.08
70909;BME280;58554;52.006;5.926;2024-03-02T12:03:04;99280.81;;;9.89;64.81
70909;BME280;58554;52.006;5.926;2024-03-02T12:05:32;99276.25;;;9.91;64.44
70909;BME280;58554;52.006;5.926;2024-03-02T12:08:00;99267.13;;;9.95;64.19
70909;BME280;58554;52.006;5.926;2024-03-02T12:10:31;99263.16;;;10.01;64.54
70909;BME280;58554;52.006;5.926;2024-03-02T12:12:58;99257.41;;;10.07;64.16
70909;BME280;58554;52.006;5.926;2024-03-02T12:15:26;99258.56;;;10.14;64.24
70909;BME280;58554;52.006;5.926;2024-03-02T12:17:58;99254.63;;;10.20;63.92
70909;BME280;58554;52.006;5.926;2024-03-02T12:20:27;99249.56;;;10.28;63.70
70909;BME280;58554;52.006;5.926;2024-03-02T12:22:57;99258.19;;;10.30;62.83
70909;BME280;58554;52.006;5.926;2024-03-02T12:25:25;99243.06;;;10.32;63.28
70909;BME280;58554;52.006;5.926;2024-03-02T12:27:54;99239.31;;;10.34;62.29
70909;BME280;58554;52.006;5.926;2024-03-02T12:30:22;99246.88;;;10.39;62.56
70909;BME280;58554;52.006;5.926;2024-03-02T12:32:50;99246.53;;;10.44;63.00
70909;BME280;58554;52.006;5.926;2024-03-02T12:35:19;99243.50;;;10.48;62.16
70909;BME280;58554;52.006;5.926;2024-03-02T12:37:47;99247.56;;;10.52;62.75
70909;BME280;58554;52.006;5.926;2024-03-02T12:40:16;99255.25;;;10.55;62.11
70909;BME280;58554;52.006;5.926;2024-03-02T12:42:44;99253.19;;;10.59;60.87
70909;BME280;58554;52.006;5.926;2024-03-02T12:45:12;99253.06;;;10.61;61.52
70909;BME280;58554;52.006;5.926;2024-03-02T12:47:40;99252.81;;;10.64;61.55
70909;BME280;58554;52.006;5.926;2024-03-02T12:50:09;99247.28;;;10.67;61.35
70909;BME280;58554;52.006;5.926;2024-03-02T12:52:38;99239.09;;;10.70;61.87
70909;BME280;58554;52.006;5.926;2024-03-02T12:55:06;99238.72;;;10.74;61.04
70909;BME280;58554;52.006;5.926;2024-03-02T12:57:33;99238.09;;;10.82;61.52
70909;BME280;58554;52.006;5.926;2024-03-02T13:00:00;99236.63;;;10.89;61.79
70909;BME280;58554;52.006;5.926;2024-03-02T13:02:29;99225.41;;;10.97;61.37
70909;BME280;58554;52.006;5.926;2024-03-02T13:04:57;99217.69;;;11.05;61.55
70909;BME280;58554;52.006;5.926;2024-03-02T13:07:25;99218.47;;;11.17;62.03
70909;BME280;58554;52.006;5.926;2024-03-02T13:09:55;99222.56;;;11.31;62.48
70909;BME280;58554;52.006;5.926;2024-03-02T13:12:22;99223.59;;;11.40;61.97